Time;durP1;ratioP1;P1;durP2;ratioP2;P2;SDS_P1;SDS_P2;PMS_P1;PMS_P2;Temp;Humidity;BMP_temperature;BMP_pressure;BME280_temperature;BME280_humidity;BME280_pressure;Samples;Min_cycle;Max_cycle;Signal;HPM_P1;HPM_P2
2023/02/01 00:01:10;;;;;;;8.33;3.90;;;6.70;1.00;;;;;;5034226;28;20279;-65
2023/02/01 00:03:36;;;;;;;10.27;4.20;;;6.70;1.00;;;;;;5034238;28;20188;-66
2023/02/01 00:06:02;;;;;;;6.40;3.43;;;6.70;1.00;;;;;;5034180;28;20214;-65
2023/02/01 00:08:28;;;;;;;8.00;4.07;;;6.60;1.00;;;;;;5030938;28;20464;-66
2023/02/01 00:11:01;;;;;;;6.73;2.97;;;6.60;1.00;;;;;;5040041;28;20205;-65
2023/02/01 00:13:32;;;;;;;10.57;3.40;;;6.70;1.00;;;;;;5050637;28;20199;-65
2023/02/01 00:16:06;;;;;;;5.77;3.30;;;6.70;1.00;;;;;;5042463;28;20616;-65
2023/02/01 00:18:32;;;;;;;8.30;3.50;;;6.70;1.00;;;;;;5043412;28;20471;-66
2023/02/01 00:20:58;;;;;;;5.30;4.13;;;6.70;1.00;;;;;;5046821;28;20468;-66
2023/02/01 00:23:24;;;;;;;9.00;4.23;;;6.70;1.00;;;;;;5045421;28;20465;-66
2023/02/01 00:25:49;;;;;;;5.80;3.47;;;6.70;1.00;;;;;;5042580;28;20193;-66
2023/02/01 00:28:15;;;;;;;6.83;3.80;;;6.80;1.00;;;;;;5037605;28;20443;-65
2023/02/01 00:30:41;;;;;;;5.80;3.23;;;6.80;1.00;;;;;;5036689;28;20510;-66
2023/02/01 00:33:06;;;;;;;5.60;3.03;;;6.80;1.00;;;;;;5041201;28;20556;-66
2023/02/01 00:35:34;;;;;;;6.70;4.73;;;6.90;1.00;;;;;;5044858;28;20205;-66
2023/02/01 00:38:00;;;;;;;7.13;3.07;;;6.80;1.00;;;;;;5046697;28;20210;-66
2023/02/01 00:40:26;;;;;;;5.97;3.03;;;6.90;1.00;;;;;;5042259;28;20542;-67
2023/02/01 00:42:51;;;;;;;4.47;3.63;;;6.80;1.00;;;;;;5045134;28;20448;-65
2023/02/01 00:45:17;;;;;;;7.03;4.07;;;6.90;1.00;;;;;;5046657;28;20470;-65
2023/02/01 00:47:45;;;;;;;5.43;2.90;;;7.00;1.00;;;;;;5046133;28;20648;-65
2023/02/01 00:50:11;;;;;;;6.00;3.50;;;7.00;1.00;;;;;;5045662;28;20192;-65
2023/02/01 00:52:37;;;;;;;8.23;3.50;;;7.00;1.00;;;;;;5048603;28;20580;-66
2023/02/01 00:55:02;;;;;;;8.13;3.70;;;6.90;1.00;;;;;;5047813;28;20192;-65
2023/02/01 00:57:28;;;;;;;5.67;3.33;;;7.00;1.00;;;;;;5038631;28;20218;-66
2023/02/01 00:59:54;;;;;;;3.70;3.30;;;6.90;1.00;;;;;;5050588;28;20281;-65
2023/02/01 01:02:19;;;;;;;5.23;2.90;;;6.90;1.00;;;;;;5046608;28;20187;-66
2023/02/01 01:04:45;;;;;;;6.90;3.30;;;6.90;1.00;;;;;;5048930;28;20186;-66
2023/02/01 01:07:11;;;;;;;7.70;3.10;;;6.90;1.00;;;;;;5043778;28;20214;-66
2023/02/01 01:09:36;;;;;;;9.17;3.30;;;6.90;1.00;;;;;;5045727;28;20467;-66
2023/02/01 01:12:02;;;;;;;4.50;2.93;;;6.80;1.00;;;;;;5042818;28;20235;-65
2023/02/01 01:14:29;;;;;;;6.73;3.17;;;6.80;1.00;;;;;;5052588;28;20195;-64
2023/02/01 01:16:55;;;;;;;11.23;3.63;;;6.90;1.00;;;;;;5048113;28;20206;-66
2023/02/01 01:19:21;;;;;;;6.20;3.77;;;6.90;1.00;;;;;;5039733;28;20789;-66
2023/02/01 01:21:46;;;;;;;8.00;2.70;;;6.80;1.00;;;;;;5046875;28;20206;-65
2023/02/01 01:24:12;;;;;;;7.53;3.30;;;7.00;1.00;;;;;;5050191;28;20201;-66
2023/02/01 01:26:38;;;;;;;5.20;2.60;;;6.80;1.00;;;;;;5041966;28;20510;-64
2023/02/01 01:29:04;;;;;;;3.83;2.40;;;6.80;1.00;;;;;;5046603;28;20433;-65
2023/02/01 01:31:30;;;;;;;11.33;3.97;;;6.80;1.00;;;;;;5045452;28;20202;-65
2023/02/01 01:33:58;;;;;;;8.27;3.20;;;6.80;1.00;;;;;;5043054;28;20449;-65
2023/02/01 01:36:26;;;;;;;6.73;2.60;;;6.90;1.00;;;;;;5050465;28;20475;-65
2023/02/01 01:38:52;;;;;;;6.43;2.60;;;6.80;1.00;;;;;;5049925;28;20461;-65
2023/02/01 01:41:22;;;;;;;4.93;2.60;;;6.80;1.00;;;;;;5053602;28;20454;-64
2023/02/01 01:43:55;;;;;;;8.80;3.20;;;6.90;1.00;;;;;;5047730;28;21025;-65
2023/02/01 01:46:28;;;;;;;9.27;2.30;;;6.80;1.00;;;;;;5035344;28;20444;-65
2023/02/01 01:49:04;;;;;;;6.60;3.07;;;6.80;1.00;;;;;;5035001;28;20463;-64
2023/02/01 01:51:35;;;;;;;5.43;2.80;;;6.70;1.00;;;;;;5032758;28;20493;-66
2023/02/01 01:54:25;;;;;;;8.70;2.97;;;7.00;1.00;;;;;;5033354;28;20492;-65
2023/02/01 01:56:57;;;;;;;8.33;2.53;;;6.80;1.00;;;;;;5035228;28;21465;-66
2023/02/01 01:59:24;;;;;;;9.57;2.87;;;6.80;1.00;;;;;;5036304;28;20457;-66
2023/02/01 02:01:51;;;;;;;4.43;2.50;;;6.80;1.00;;;;;;5046077;28;20533;-64
2023/02/01 02:04:17;;;;;;;10.90;3.30;;;6.80;1.00;;;;;;5048177;28;20818;-64
2023/02/01 02:06:49;;;;;;;5.57;2.90;;;6.80;1.00;;;;;;5047245;28;20455;-65
2023/02/01 02:09:16;;;;;;;7.70;3.00;;;6.80;1.00;;;;;;5044833;28;20465;-64
2023/02/01 02:11:41;;;;;;;6.13;2.60;;;6.80;1.00;;;;;;5042931;28;20486;-65
2023/02/01 02:14:11;;;;;;;7.80;2.67;;;6.80;1.00;;;;;;5049093;28;20513;-65
2023/02/01 02:17:16;;;;;;;6.63;2.53;;;6.80;1.00;;;;;;5046958;28;20467;-65
2023/02/01 02:19:55;;;;;;;9.93;2.80;;;6.80;1.00;;;;;;5047016;28;21011;-65
2023/02/01 02:22:48;;;;;;;6.10;2.60;;;6.90;1.00;;;;;;5047251;28;21079;-65
2023/02/01 02:25:19;;;;;;;6.23;2.77;;;6.80;1.00;;;;;;5043042;28;20459;-64
2023/02/01 02:28:05;;;;;;;5.57;2.60;;;6.80;1.00;;;;;;5050256;28;20535;-65
2023/02/01 02:30:45;;;;;;;6.90;2.47;;;6.80;1.00;;;;;;5046527;28;21122;-65
2023/02/01 02:33:43;;;;;;;6.07;2.23;;;6.80;1.00;;;;;;5045115;28;20431;-65
2023/02/01 02:36:30;;;;;;;7.33;3.00;;;6.80;1.00;;;;;;5030852;28;20833;-66
2023/02/01 02:39:08;;;;;;;11.43;2.93;;;6.80;1.00;;;;;;5045382;28;20445;-64
2023/02/01 02:47:31;;;;;;;7.53;2.17;;;6.80;1.00;;;;;;5044874;28;20444;-65
2023/02/01 02:55:45;;;;;;;10.43;2.53;;;6.70;1.00;;;;;;5039705;28;20519;-65
2023/02/01 03:04:08;;;;;;;5.47;2.10;;;6.70;1.00;;;;;;5043248;28;20460;-64
2023/02/01 03:06:34;;;;;;;5.90;2.73;;;6.70;1.00;;;;;;5045488;28;20457;-64
2023/02/01 03:09:08;;;;;;;9.77;2.60;;;6.80;1.00;;;;;;5045658;28;20484;-65
2023/02/01 03:14:24;;;;;;;6.20;2.40;;;6.90;1.00;;;;;;5057429;28;20876;-64
2023/02/01 03:16:57;;;;;;;6.30;2.30;;;6.70;1.00;;;;;;5039297;28;20470;-66
2023/02/01 03:19:34;;;;;;;4.33;2.67;;;6.70;1.00;;;;;;5041208;28;20520;-65
2023/02/01 03:22:04;;;;;;;5.47;2.30;;;6.70;1.00;;;;;;5042623;28;20953;-64
2023/02/01 03:24:37;;;;;;;7.77;3.57;;;6.70;1.00;;;;;;5050128;28;20980;-65
2023/02/01 03:27:19;;;;;;;6.90;2.80;;;6.70;1.00;;;;;;5043772;28;20447;-66
2023/02/01 03:29:54;;;;;;;8.17;3.03;;;6.70;1.00;;;;;;5043381;28;20461;-65
2023/02/01 03:32:21;;;;;;;7.53;2.53;;;6.70;1.00;;;;;;5037863;28;20449;-66
2023/02/01 03:34:49;;;;;;;10.33;2.60;;;6.80;1.00;;;;;;5044049;28;20453;-65
2023/02/01 03:37:26;;;;;;;7.17;2.20;;;6.70;1.00;;;;;;5042090;28;20542;-65
2023/02/01 03:40:07;;;;;;;10.30;3.30;;;6.80;1.00;;;;;;5045144;28;21021;-65
2023/02/01 03:42:46;;;;;;;7.63;2.37;;;6.80;1.00;;;;;;5042138;28;20460;-66
2023/02/01 03:45:22;;;;;;;8.47;3.20;;;6.90;1.00;;;;;;5047403;28;20526;-65
2023/02/01 03:47:53;;;;;;;5.17;2.03;;;6.90;1.00;;;;;;5035818;28;20491;-65
2023/02/01 03:50:25;;;;;;;7.23;2.50;;;6.90;1.00;;;;;;5032495;28;20483;-66
2023/02/01 03:53:15;;;;;;;6.73;2.93;;;6.80;1.00;;;;;;5033248;28;20492;-66
2023/02/01 03:55:42;;;;;;;5.73;2.50;;;6.80;1.00;;;;;;5032198;28;20460;-66
2023/02/01 03:58:15;;;;;;;3.67;1.90;;;6.70;1.00;;;;;;5035474;28;20981;-67
2023/02/01 04:00:45;;;;;;;7.10;2.60;;;6.80;1.00;;;;;;5034204;28;20453;-66
2023/02/01 04:03:11;;;;;;;10.23;2.67;;;6.80;1.00;;;;;;5031290;28;21008;-65
2023/02/01 04:05:37;;;;;;;9.20;3.07;;;6.90;1.00;;;;;;5033412;28;20458;-65
2023/02/01 04:08:04;;;;;;;5.83;2.40;;;6.90;1.00;;;;;;5046360;28;20191;-66
2023/02/01 04:10:30;;;;;;;6.23;3.00;;;6.90;1.00;;;;;;5046115;28;20190;-65
2023/02/01 04:12:56;;;;;;;8.27;2.40;;;6.80;1.00;;;;;;5041080;28;20458;-65
2023/02/01 04:15:21;;;;;;;6.23;2.80;;;6.80;1.00;;;;;;5041909;28;20299;-65
2023/02/01 04:17:47;;;;;;;7.50;2.80;;;6.80;1.00;;;;;;5042325;28;20231;-65
2023/02/01 04:20:13;;;;;;;8.00;2.70;;;6.90;1.00;;;;;;5044656;28;20245;-66
2023/02/01 04:22:39;;;;;;;5.30;2.47;;;6.80;1.00;;;;;;5045307;28;20190;-65
2023/02/01 04:25:05;;;;;;;7.03;2.50;;;6.80;1.00;;;;;;5045709;28;20194;-65
2023/02/01 04:27:31;;;;;;;11.53;2.87;;;6.80;1.00;;;;;;5043368;28;20757;-65
2023/02/01 04:29:57;;;;;;;9.93;2.90;;;6.90;1.00;;;;;;5044001;28;20451;-65
2023/02/01 04:32:22;;;;;;;5.83;2.50;;;6.80;1.00;;;;;;5045949;28;20475;-65
2023/02/01 04:34:48;;;;;;;6.30;2.60;;;6.60;1.00;;;;;;5045416;28;20225;-65
2023/02/01 04:37:14;;;;;;;9.60;2.60;;;6.80;1.00;;;;;;5045558;28;20596;-65
2023/02/01 04:39:39;;;;;;;6.63;2.70;;;6.90;1.00;;;;;;5046494;28;20188;-65
2023/02/01 04:42:05;;;;;;;9.40;3.03;;;6.90;1.00;;;;;;5039676;28;20271;-65
2023/02/01 04:44:30;;;;;;;9.40;3.20;;;6.80;1.00;;;;;;5043630;28;20186;-65
2023/02/01 04:46:56;;;;;;;8.70;2.70;;;6.80;1.00;;;;;;5039398;28;20644;-65
2023/02/01 04:49:21;;;;;;;8.00;3.57;;;6.80;1.00;;;;;;5045503;28;20198;-66
2023/02/01 04:51:48;;;;;;;6.03;2.47;;;6.90;1.00;;;;;;5043690;28;21600;-65
2023/02/01 04:54:14;;;;;;;3.93;2.27;;;6.90;1.00;;;;;;5046127;28;20274;-65
2023/02/01 04:56:40;;;;;;;9.00;2.40;;;6.80;1.00;;;;;;5038242;28;20424;-65
2023/02/01 04:59:06;;;;;;;7.63;2.30;;;6.70;1.00;;;;;;5039246;28;20531;-65
2023/02/01 05:01:32;;;;;;;4.40;2.73;;;6.70;1.00;;;;;;5045214;28;20452;-65
2023/02/01 05:03:57;;;;;;;5.73;2.43;;;6.80;1.00;;;;;;5044857;28;20441;-66
2023/02/01 05:06:23;;;;;;;12.10;3.17;;;6.80;1.00;;;;;;5042601;28;20346;-64
2023/02/01 05:08:49;;;;;;;9.03;2.70;;;6.80;1.00;;;;;;5043131;28;20191;-65
2023/02/01 05:14:13;;;;;;;4.80;2.00;;;6.70;1.00;;;;;;5041503;28;20436;-65
2023/02/01 05:16:38;;;;;;;7.30;2.50;;;6.70;1.00;;;;;;5038302;28;21082;-64
2023/02/01 05:19:04;;;;;;;10.70;2.77;;;6.80;1.00;;;;;;5044731;28;20758;-64
2023/02/01 05:21:29;;;;;;;5.57;2.33;;;7.00;1.00;;;;;;5042715;28;20277;-65
2023/02/01 05:24:12;;;;;;;5.37;1.70;;;6.90;1.00;;;;;;5047601;28;20666;-65
2023/02/01 05:26:42;;;;;;;10.83;2.43;;;6.90;1.00;;;;;;5044479;28;20214;-65
2023/02/01 05:29:09;;;;;;;7.33;3.13;;;7.00;1.00;;;;;;5036114;28;21653;-65
2023/02/01 05:31:35;;;;;;;8.17;3.40;;;7.00;1.00;;;;;;5042052;28;20437;-65
2023/02/01 05:34:01;;;;;;;8.17;2.77;;;6.90;1.00;;;;;;5046163;28;20529;-64
2023/02/01 05:36:27;;;;;;;11.43;2.63;;;7.00;1.00;;;;;;5046546;28;20508;-65
2023/02/01 05:38:53;;;;;;;6.93;2.30;;;7.00;1.00;;;;;;5061237;28;20489;-65
2023/02/01 05:41:18;;;;;;;6.80;2.80;;;7.00;1.00;;;;;;5047597;28;20952;-65
2023/02/01 05:43:44;;;;;;;6.77;2.30;;;7.00;1.00;;;;;;5049243;28;20632;-65
2023/02/01 05:46:12;;;;;;;10.10;3.07;;;7.00;1.00;;;;;;5045458;28;20192;-65
2023/02/01 05:48:41;;;;;;;4.67;2.60;;;7.00;1.00;;;;;;5067406;28;20615;-65
2023/02/01 05:51:07;;;;;;;5.63;2.70;;;7.10;1.00;;;;;;5050073;28;20447;-65
2023/02/01 05:53:33;;;;;;;12.03;3.43;;;7.00;1.00;;;;;;5051213;28;20472;-64
2023/02/01 05:55:58;;;;;;;7.10;2.90;;;6.90;1.00;;;;;;5042919;28;20460;-65
2023/02/01 05:58:24;;;;;;;9.87;2.63;;;6.90;1.00;;;;;;5034726;28;20226;-65
2023/02/01 06:00:49;;;;;;;6.37;2.37;;;6.90;1.00;;;;;;5043424;28;20549;-64
2023/02/01 06:03:15;;;;;;;7.83;2.53;;;7.10;1.00;;;;;;5045668;28;20415;-64
2023/02/01 06:05:44;;;;;;;10.47;3.30;;;7.00;1.00;;;;;;5046283;28;20187;-65
2023/02/01 06:08:09;;;;;;;9.90;2.57;;;7.00;1.00;;;;;;5043148;28;20900;-65
2023/02/01 06:10:35;;;;;;;10.33;2.87;;;6.90;1.00;;;;;;5035338;28;20441;-64
2023/02/01 06:13:02;;;;;;;11.93;3.90;;;6.80;1.00;;;;;;5046482;28;20199;-66
2023/02/01 06:15:29;;;;;;;13.43;3.43;;;6.80;1.00;;;;;;5051059;28;20202;-59
2023/02/01 06:17:54;;;;;;;9.60;2.97;;;6.80;1.00;;;;;;5057828;28;20480;-59
2023/02/01 06:20:21;;;;;;;8.40;3.27;;;6.90;1.00;;;;;;5055204;28;20446;-61
2023/02/01 06:22:46;;;;;;;5.23;3.40;;;7.00;1.00;;;;;;5064841;28;20609;-59
2023/02/01 06:25:12;;;;;;;12.63;4.20;;;6.80;1.00;;;;;;5069949;28;20444;-61
2023/02/01 06:27:38;;;;;;;9.43;5.00;;;7.00;1.00;;;;;;5047729;28;20202;-62
2023/02/01 06:30:06;;;;;;;7.50;4.00;;;6.90;1.00;;;;;;5051956;28;20572;-64
2023/02/01 06:32:31;;;;;;;13.90;4.37;;;6.90;1.00;;;;;;5050203;28;20184;-63
2023/02/01 06:34:57;;;;;;;7.50;3.80;;;6.90;1.00;;;;;;5053226;28;20444;-63
2023/02/01 06:37:24;;;;;;;9.00;3.80;;;6.90;1.00;;;;;;5053814;28;20207;-63
2023/02/01 06:39:50;;;;;;;8.60;3.73;;;7.00;1.00;;;;;;5057320;28;20475;-64
2023/02/01 06:42:16;;;;;;;9.87;4.00;;;7.00;1.00;;;;;;5055815;28;20431;-62
2023/02/01 06:44:42;;;;;;;8.67;2.90;;;7.00;1.00;;;;;;5061104;28;20480;-64
2023/02/01 06:47:07;;;;;;;7.30;2.97;;;6.90;1.00;;;;;;5045737;28;20449;-62
2023/02/01 06:49:33;;;;;;;6.57;3.10;;;6.80;1.00;;;;;;5050015;28;20244;-64
2023/02/01 06:52:01;;;;;;;6.37;2.43;;;6.90;1.00;;;;;;5059134;28;20502;-63
2023/02/01 06:54:28;;;;;;;8.67;3.00;;;7.00;1.00;;;;;;5042388;28;20198;-63
2023/02/01 06:56:53;;;;;;;5.93;2.90;;;6.80;1.00;;;;;;5046675;28;20505;-64
2023/02/01 06:59:19;;;;;;;10.20;2.97;;;6.80;1.00;;;;;;5044993;28;20474;-62
2023/02/01 07:01:45;;;;;;;10.33;3.50;;;6.80;1.00;;;;;;5049812;28;20179;-63
2023/02/01 07:04:12;;;;;;;11.30;3.23;;;6.90;1.00;;;;;;5046661;28;20199;-62
2023/02/01 07:06:38;;;;;;;9.50;3.60;;;6.90;1.00;;;;;;5048651;28;20644;-63
2023/02/01 07:09:04;;;;;;;9.17;3.90;;;6.90;1.00;;;;;;5045018;28;20843;-63
2023/02/01 07:11:30;;;;;;;14.73;3.37;;;6.90;1.00;;;;;;5041503;28;20528;-63
2023/02/01 07:13:56;;;;;;;6.70;3.00;;;7.00;1.00;;;;;;5049304;28;20686;-63
2023/02/01 07:16:22;;;;;;;8.73;2.70;;;6.90;1.00;;;;;;5045914;28;20442;-63
2023/02/01 07:18:49;;;;;;;4.27;2.33;;;6.70;1.00;;;;;;5046716;28;20215;-63
2023/02/01 07:21:15;;;;;;;7.80;3.40;;;6.70;1.00;;;;;;5045321;28;20540;-64
2023/02/01 07:23:41;;;;;;;14.60;3.87;;;6.70;1.00;;;;;;5047338;28;20535;-63
2023/02/01 07:26:09;;;;;;;6.53;3.23;;;6.70;1.00;;;;;;5047809;28;20244;-63
2023/02/01 07:28:35;;;;;;;9.73;3.40;;;6.60;1.00;;;;;;5047583;28;20258;-63
2023/02/01 07:31:15;;;;;;;12.27;4.10;;;6.50;1.00;;;;;;5038015;28;20449;-63
2023/02/01 07:33:41;;;;;;;10.10;3.00;;;6.50;1.00;;;;;;5067400;28;20455;-64
2023/02/01 07:36:10;;;;;;;8.80;2.93;;;6.60;1.00;;;;;;5047749;28;20457;-63
2023/02/01 07:38:36;;;;;;;6.50;3.50;;;6.60;1.00;;;;;;5045927;28;20472;-63
2023/02/01 07:41:05;;;;;;;6.90;3.30;;;6.70;1.00;;;;;;5046080;28;20933;-63
2023/02/01 07:43:33;;;;;;;9.73;3.40;;;6.60;1.00;;;;;;5045344;28;20528;-64
2023/02/01 07:45:59;;;;;;;8.00;3.73;;;6.50;1.00;;;;;;5047925;28;20516;-62
2023/02/01 07:48:26;;;;;;;10.60;3.80;;;6.30;1.00;;;;;;5052965;28;20561;-63
2023/02/01 07:51:05;;;;;;;11.43;3.77;;;6.40;1.00;;;;;;5045782;28;20441;-64
2023/02/01 07:53:32;;;;;;;9.10;3.93;;;6.50;1.00;;;;;;5046927;28;20470;-63
2023/02/01 07:55:58;;;;;;;9.47;4.00;;;6.50;1.00;;;;;;5043403;28;21122;-64
2023/02/01 07:58:25;;;;;;;6.70;3.17;;;6.40;1.00;;;;;;5042292;28;20444;-63
2023/02/01 08:03:36;;;;;;;6.57;3.23;;;6.50;1.00;;;;;;5040429;28;20440;-64
2023/02/01 08:06:02;;;;;;;6.60;2.60;;;6.50;1.00;;;;;;5045021;28;20802;-63
2023/02/01 08:08:28;;;;;;;10.63;4.00;;;6.60;1.00;;;;;;5044147;28;20437;-63
2023/02/01 08:10:58;;;;;;;6.10;3.63;;;6.60;1.00;;;;;;5048480;28;20207;-63
2023/02/01 08:13:24;;;;;;;6.43;2.73;;;6.70;1.00;;;;;;5045076;28;20265;-63
2023/02/01 08:15:50;;;;;;;9.67;2.93;;;6.80;1.00;;;;;;5042589;28;20552;-63
2023/02/01 08:18:17;;;;;;;2.47;2.27;;;6.70;1.00;;;;;;5048490;28;20214;-63
2023/02/01 08:20:45;;;;;;;10.30;2.97;;;6.60;1.00;;;;;;5052081;28;20271;-63
2023/02/01 08:23:11;;;;;;;9.20;3.40;;;6.60;1.00;;;;;;5047204;28;20470;-63
2023/02/01 08:25:38;;;;;;;9.80;3.47;;;6.60;1.00;;;;;;5048399;28;20419;-63
2023/02/01 08:28:04;;;;;;;5.33;2.50;;;6.60;1.00;;;;;;5048229;28;22299;-63
2023/02/01 08:30:30;;;;;;;12.53;3.50;;;6.60;1.00;;;;;;5045809;28;20458;-62
2023/02/01 08:32:55;;;;;;;9.00;3.37;;;6.60;1.00;;;;;;5042521;28;20480;-63
2023/02/01 08:35:21;;;;;;;5.47;3.17;;;6.50;1.00;;;;;;5043533;28;20256;-64
2023/02/01 08:37:47;;;;;;;6.10;3.60;;;6.30;1.00;;;;;;5043027;28;20235;-64
2023/02/01 08:40:13;;;;;;;5.03;2.90;;;6.40;1.00;;;;;;5049316;28;20182;-63
2023/02/01 08:42:51;;;;;;;6.57;2.67;;;6.60;1.00;;;;;;5044576;28;20189;-63
2023/02/01 08:45:23;;;;;;;9.23;3.37;;;6.60;1.00;;;;;;5047974;28;20444;-62
2023/02/01 08:47:50;;;;;;;5.73;2.47;;;6.60;1.00;;;;;;5048924;28;20511;-63
2023/02/01 08:50:17;;;;;;;8.20;3.13;;;6.60;1.00;;;;;;5046661;28;20456;-63
2023/02/01 08:52:42;;;;;;;14.00;4.47;;;6.80;1.00;;;;;;5047340;28;20564;-63
2023/02/01 08:55:09;;;;;;;10.83;3.50;;;6.80;1.00;;;;;;5048833;28;20517;-63
2023/02/01 08:57:34;;;;;;;10.47;2.97;;;6.90;1.00;;;;;;5048094;28;20215;-63
2023/02/01 09:00:01;;;;;;;6.93;3.17;;;7.00;1.00;;;;;;5047216;28;20540;-63
2023/02/01 09:02:26;;;;;;;5.17;2.40;;;7.00;1.00;;;;;;5050561;28;20268;-64
2023/02/01 09:04:53;;;;;;;25.03;4.83;;;7.10;1.00;;;;;;5051152;28;20416;-64
2023/02/01 09:07:19;;;;;;;9.00;3.50;;;7.10;1.00;;;;;;5048949;28;20423;-63
2023/02/01 09:09:45;;;;;;;11.17;3.93;;;7.30;1.00;;;;;;5047303;28;20469;-63
2023/02/01 09:12:10;;;;;;;5.00;2.40;;;7.30;1.00;;;;;;5047994;28;20198;-64
2023/02/01 09:14:36;;;;;;;5.03;2.27;;;7.40;1.00;;;;;;5048897;28;20527;-62
2023/02/01 09:17:02;;;;;;;8.30;2.60;;;7.40;1.00;;;;;;5055372;28;20215;-62
2023/02/01 09:19:28;;;;;;;7.97;2.77;;;7.30;1.00;;;;;;5051417;28;20819;-63
2023/02/01 09:21:53;;;;;;;5.60;2.80;;;7.30;1.00;;;;;;5064254;28;20191;-61
2023/02/01 09:24:19;;;;;;;4.83;2.50;;;7.30;1.00;;;;;;5050370;28;20184;-62
2023/02/01 09:26:45;;;;;;;7.17;2.70;;;7.40;1.00;;;;;;5049613;28;20448;-62
2023/02/01 09:29:10;;;;;;;5.40;2.70;;;7.20;1.00;;;;;;5049481;28;20214;-62
2023/02/01 09:31:36;;;;;;;5.67;3.10;;;7.30;1.00;;;;;;5047013;28;20865;-64
2023/02/01 09:34:03;;;;;;;4.80;2.83;;;7.30;1.00;;;;;;5049068;28;20191;-63
2023/02/01 09:36:28;;;;;;;11.37;3.70;;;7.10;1.00;;;;;;5050529;28;20449;-62
2023/02/01 09:38:54;;;;;;;11.73;2.80;;;6.90;1.00;;;;;;5050117;28;20479;-62
2023/02/01 09:41:53;;;;;;;11.53;4.93;;;6.90;1.00;;;;;;5048480;28;20193;-62
2023/02/01 09:44:51;;;;;;;6.47;2.97;;;6.90;1.00;;;;;;5047303;28;20564;-63
2023/02/01 09:47:21;;;;;;;9.87;4.20;;;6.80;1.00;;;;;;5023638;28;20968;-62
2023/02/01 09:50:01;;;;;;;4.93;2.70;;;6.90;1.00;;;;;;5051048;28;20493;-62
2023/02/01 09:52:34;;;;;;;6.00;3.70;;;6.80;1.00;;;;;;5045753;28;20515;-63
2023/02/01 09:55:04;;;;;;;7.57;2.60;;;6.50;1.00;;;;;;5050298;28;20454;-62
2023/02/01 09:57:51;;;;;;;3.90;2.67;;;6.40;1.00;;;;;;5063375;28;20483;-62
2023/02/01 10:00:23;;;;;;;10.03;2.90;;;6.10;1.00;;;;;;5047210;28;20445;-62
2023/02/01 10:02:50;;;;;;;3.80;2.63;;;6.00;1.00;;;;;;5051449;28;20445;-61
2023/02/01 10:05:30;;;;;;;6.47;2.90;;;5.70;1.00;;;;;;5049944;28;20441;-62
2023/02/01 10:08:04;;;;;;;7.53;3.80;;;5.70;1.00;;;;;;5050605;28;20438;-62
2023/02/01 10:10:30;;;;;;;9.13;3.00;;;5.70;1.00;;;;;;5051565;28;20444;-63
2023/02/01 10:13:33;;;;;;;8.40;2.83;;;5.60;1.00;;;;;;5051345;28;20920;-61
2023/02/01 10:16:16;;;;;;;6.50;2.77;;;5.40;1.00;;;;;;5048215;28;20190;-61
2023/02/01 10:18:42;;;;;;;10.53;3.53;;;5.30;1.00;;;;;;5049137;28;20485;-62
2023/02/01 10:21:22;;;;;;;6.50;3.50;;;5.20;1.00;;;;;;5050979;28;20499;-62
2023/02/01 10:24:06;;;;;;;8.27;3.37;;;5.40;1.00;;;;;;5051284;28;21566;-61
2023/02/01 10:26:44;;;;;;;6.50;2.70;;;5.40;1.00;;;;;;5051089;28;20792;-62
2023/02/01 10:29:22;;;;;;;6.60;3.30;;;5.30;1.00;;;;;;5051158;28;20436;-61
2023/02/01 10:31:48;;;;;;;5.87;2.70;;;5.30;1.00;;;;;;5048209;28;20449;-62
2023/02/01 10:34:17;;;;;;;4.10;2.70;;;5.50;1.00;;;;;;5050346;28;20442;-61
2023/02/01 10:37:12;;;;;;;5.13;3.10;;;5.50;1.00;;;;;;5049234;28;20259;-61
2023/02/01 10:39:38;;;;;;;5.40;3.90;;;5.60;1.00;;;;;;5042282;28;20449;-61
2023/02/01 10:42:03;;;;;;;5.27;3.33;;;5.70;1.00;;;;;;5048392;28;20479;-61
2023/02/01 10:44:31;;;;;;;5.57;3.30;;;5.70;1.00;;;;;;5050119;28;20182;-62
2023/02/01 10:46:56;;;;;;;13.23;3.17;;;5.80;1.00;;;;;;5047167;28;20983;-62
2023/02/01 10:50:02;;;;;;;8.43;3.57;;;5.80;1.00;;;;;;5050663;28;20434;-61
2023/02/01 10:52:39;;;;;;;10.17;4.37;;;5.90;1.00;;;;;;5046768;28;20577;-61
2023/02/01 10:55:32;;;;;;;7.17;3.60;;;6.00;1.00;;;;;;5046580;28;20460;-61
2023/02/01 10:58:00;;;;;;;7.27;3.70;;;6.10;1.00;;;;;;5045788;28;20839;-61
2023/02/01 11:00:27;;;;;;;6.13;2.97;;;6.20;1.00;;;;;;5047510;28;20453;-64
2023/02/01 11:02:54;;;;;;;5.43;3.03;;;6.20;1.00;;;;;;5049646;28;20435;-63
2023/02/01 11:05:22;;;;;;;7.87;2.93;;;6.30;1.00;;;;;;5045789;28;20449;-62
2023/02/01 11:07:55;;;;;;;8.27;3.00;;;6.50;1.00;;;;;;5041972;28;20453;-63
2023/02/01 11:10:40;;;;;;;5.10;2.63;;;6.60;1.00;;;;;;5045905;28;20448;-63
2023/02/01 11:13:11;;;;;;;7.63;2.67;;;6.60;1.00;;;;;;5048021;28;20578;-63
2023/02/01 11:15:37;;;;;;;9.87;2.73;;;6.60;1.00;;;;;;5045294;28;20467;-63
2023/02/01 11:18:15;;;;;;;6.13;3.00;;;6.70;1.00;;;;;;5053105;28;20553;-63
2023/02/01 11:20:43;;;;;;;10.90;3.30;;;6.70;1.00;;;;;;5054569;28;20190;-62
2023/02/01 11:23:26;;;;;;;6.30;2.57;;;6.70;1.00;;;;;;5052675;28;20441;-61
2023/02/01 11:25:57;;;;;;;5.30;2.50;;;6.90;1.00;;;;;;5069004;28;20432;-62
2023/02/01 11:28:31;;;;;;;4.07;2.60;;;6.90;1.00;;;;;;5065484;28;20850;-63
2023/02/01 11:31:02;;;;;;;6.70;2.57;;;6.90;1.00;;;;;;5061100;28;20926;-62
2023/02/01 11:33:33;;;;;;;8.70;2.40;;;7.10;1.00;;;;;;5068497;28;20434;-61
2023/02/01 11:36:20;;;;;;;4.67;3.37;;;7.00;1.00;;;;;;5050064;28;20575;-62
2023/02/01 11:39:09;;;;;;;5.60;2.63;;;6.90;1.00;;;;;;5052026;28;20475;-62
2023/02/01 11:41:57;;;;;;;5.80;3.00;;;7.00;1.00;;;;;;5061760;28;20437;-62
2023/02/01 11:44:32;;;;;;;10.63;3.23;;;7.00;1.00;;;;;;5048951;28;20490;-61
2023/02/01 11:47:34;;;;;;;8.33;2.70;;;7.10;1.00;;;;;;5060993;28;20424;-62
2023/02/01 11:50:03;;;;;;;6.63;2.87;;;7.20;1.00;;;;;;5066423;28;20498;-61
2023/02/01 11:52:50;;;;;;;6.33;2.67;;;7.50;1.00;;;;;;5062008;28;20462;-61
2023/02/01 11:55:31;;;;;;;5.27;4.03;;;7.40;1.00;;;;;;5051050;28;20420;-62
2023/02/01 11:58:11;;;;;;;7.03;2.97;;;7.40;1.00;;;;;;5066955;28;20448;-62
2023/02/01 12:00:36;;;;;;;6.33;2.70;;;7.20;1.00;;;;;;5066476;28;20469;-61
2023/02/01 12:03:12;;;;;;;5.07;2.53;;;7.20;1.00;;;;;;5061466;28;20475;-62
2023/02/01 12:05:46;;;;;;;5.37;2.80;;;7.10;1.00;;;;;;5064589;28;20181;-61
2023/02/01 12:08:41;;;;;;;7.30;2.50;;;7.10;1.00;;;;;;5048958;28;20483;-61
2023/02/01 12:11:24;;;;;;;4.70;2.70;;;7.10;1.00;;;;;;5060832;28;20440;-61
2023/02/01 12:14:00;;;;;;;3.03;2.73;;;7.30;1.00;;;;;;5069600;28;20506;-62
2023/02/01 12:16:37;;;;;;;12.13;3.57;;;7.40;1.00;;;;;;5055959;28;20441;-62
2023/02/01 12:19:14;;;;;;;6.03;2.93;;;7.30;1.00;;;;;;5058428;28;20519;-62
2023/02/01 12:21:47;;;;;;;8.70;2.90;;;7.30;1.00;;;;;;5050452;28;20480;-61
2023/02/01 12:24:28;;;;;;;4.83;2.67;;;7.50;1.00;;;;;;5066781;28;21110;-62
2023/02/01 12:27:12;;;;;;;5.90;2.60;;;7.50;1.00;;;;;;5052396;28;20438;-62
2023/02/01 12:30:01;;;;;;;7.30;2.40;;;7.50;1.00;;;;;;5050341;28;20447;-62
2023/02/01 12:32:41;;;;;;;10.53;3.00;;;7.50;1.00;;;;;;5060901;28;20411;-63
2023/02/01 12:35:26;;;;;;;10.33;3.40;;;7.50;1.00;;;;;;5056031;28;20440;-63
2023/02/01 12:38:01;;;;;;;5.47;2.20;;;7.70;1.00;;;;;;5056638;28;21040;-62
2023/02/01 12:40:42;;;;;;;4.27;2.40;;;7.70;1.00;;;;;;5059042;28;20436;-62
2023/02/01 12:43:34;;;;;;;4.53;2.40;;;7.50;1.00;;;;;;5064766;28;20433;-62
2023/02/01 12:46:06;;;;;;;5.37;3.00;;;7.60;1.00;;;;;;5064850;28;20430;-62
2023/02/01 12:48:37;;;;;;;11.57;2.33;;;7.50;1.00;;;;;;5061342;28;20545;-63
2023/02/01 12:51:08;;;;;;;4.53;2.00;;;7.50;1.00;;;;;;5070757;28;20858;-62
2023/02/01 12:53:50;;;;;;;4.77;3.00;;;7.50;1.00;;;;;;5067572;28;20803;-63
2023/02/01 12:56:43;;;;;;;3.50;2.00;;;7.50;1.00;;;;;;5056935;28;20431;-61
2023/02/01 12:59:20;;;;;;;8.37;3.30;;;7.60;1.00;;;;;;5070795;28;21039;-63
2023/02/01 13:02:05;;;;;;;6.77;2.63;;;7.60;1.00;;;;;;5061921;28;20423;-62
2023/02/01 13:04:37;;;;;;;5.37;2.80;;;7.70;1.00;;;;;;5059532;28;20436;-62
2023/02/01 13:07:34;;;;;;;8.73;3.37;;;7.80;1.00;;;;;;5060403;28;20440;-63
2023/02/01 13:10:15;;;;;;;7.80;2.03;;;7.90;1.00;;;;;;5056355;28;20441;-63
2023/02/01 13:12:53;;;;;;;7.87;2.90;;;7.90;1.00;;;;;;5053236;28;20543;-62
2023/02/01 13:15:23;;;;;;;9.33;2.53;;;7.80;1.00;;;;;;5067714;28;20495;-64
2023/02/01 13:17:51;;;;;;;4.17;2.50;;;7.80;1.00;;;;;;5058931;28;21059;-63
2023/02/01 13:20:41;;;;;;;5.33;2.67;;;7.80;1.00;;;;;;5059885;28;20526;-65
2023/02/01 13:23:21;;;;;;;5.43;2.40;;;7.80;1.00;;;;;;5051461;28;20487;-63
2023/02/01 13:25:50;;;;;;;4.40;2.30;;;7.80;1.00;;;;;;5057858;28;20396;-63
2023/02/01 13:28:45;;;;;;;4.93;2.53;;;8.10;1.00;;;;;;5064107;28;20468;-62
2023/02/01 13:31:39;;;;;;;4.50;2.80;;;7.90;1.00;;;;;;5061623;28;20855;-62
2023/02/01 13:34:23;;;;;;;8.73;2.90;;;8.00;1.00;;;;;;5053577;28;20987;-63
2023/02/01 13:37:15;;;;;;;4.90;2.13;;;8.00;1.00;;;;;;5059566;28;20443;-63
2023/02/01 13:39:52;;;;;;;4.23;2.30;;;8.10;1.00;;;;;;5058389;28;20872;-64
2023/02/01 13:42:25;;;;;;;9.70;2.57;;;8.10;1.00;;;;;;5066867;28;20463;-64
2023/02/01 13:44:56;;;;;;;5.30;2.60;;;8.10;1.00;;;;;;5068306;28;20440;-64
2023/02/01 13:47:32;;;;;;;7.10;2.63;;;8.00;1.00;;;;;;5062101;28;20922;-64
2023/02/01 13:50:11;;;;;;;7.53;3.07;;;8.00;1.00;;;;;;5055489;28;20442;-63
2023/02/01 13:52:41;;;;;;;9.63;3.30;;;8.10;1.00;;;;;;5057494;28;20473;-63